createdAt,value
2017-08-10T00:00:21.079Z,93.73
2017-08-10T00:01:21.173Z,93.54
2017-08-10T00:02:21.072Z,93.73
2017-08-10T00:03:21.245Z,93.73
2017-08-10T00:04:21.066Z,93.73
2017-08-10T00:05:21.060Z,93.73
2017-08-10T00:06:21.056Z,93.44
2017-08-10T00:07:20.751Z,93.63
2017-08-10T00:08:21.056Z,94.12
2017-08-10T00:09:21.149Z,94.21
2017-08-10T00:10:20.738Z,93.82
2017-08-10T00:11:21.057Z,93.44
2017-08-10T00:12:21.041Z,94.21
2017-08-10T00:13:21.034Z,93.54
2017-08-10T00:14:21.205Z,93.44
2017-08-10T00:15:21.031Z,94.02
2017-08-10T00:16:21.021Z,94.07
2017-08-10T00:17:21.122Z,94.02
2017-08-10T00:18:21.014Z,94.07
2017-08-10T00:19:21.015Z,93.49
2017-08-10T00:20:21.011Z,94.02
2017-08-10T00:21:21.008Z,93.4
2017-08-10T00:22:21.007Z,93.54
2017-08-10T00:23:21.006Z,93.68
2017-08-10T00:24:21.098Z,93.59
2017-08-10T00:25:20.993Z,93.49
2017-08-10T00:26:20.992Z,93.59
2017-08-10T00:27:20.991Z,93.78
2017-08-10T00:28:20.988Z,93.49
2017-08-10T00:29:20.986Z,93.49
2017-08-10T00:30:20.976Z,93.4
2017-08-10T00:31:21.081Z,93.78
2017-08-10T00:32:20.976Z,93.49
2017-08-10T00:33:20.972Z,93.49
2017-08-10T00:34:20.964Z,93.49
2017-08-10T00:35:21.163Z,93.4
2017-08-10T00:36:20.960Z,93.4
2017-08-10T00:37:20.952Z,93.21
2017-08-10T00:38:20.952Z,93.49
2017-08-10T00:39:21.049Z,93.68
2017-08-10T00:40:20.948Z,93.49
2017-08-10T00:41:21.045Z,93.59
2017-08-10T00:42:20.939Z,93.78
2017-08-10T00:43:20.934Z,93.59
2017-08-10T00:44:20.929Z,93.88
2017-08-10T00:45:20.928Z,93.78
2017-08-10T00:46:20.928Z,93.97
2017-08-10T00:47:20.918Z,93.88
2017-08-10T00:48:21.016Z,93.82
2017-08-10T00:49:20.913Z,93.63
2017-08-10T00:50:20.914Z,93.01
2017-08-10T00:51:20.910Z,93.15
2017-08-10T00:52:20.902Z,93.15
2017-08-10T00:53:20.899Z,93.15
2017-08-10T00:54:20.908Z,93.06
2017-08-10T00:55:20.897Z,93.35
2017-08-10T00:56:20.889Z,92.96
2017-08-10T00:57:20.889Z,93.44
2017-08-10T00:58:20.889Z,92.82
2017-08-10T00:59:20.885Z,92.96
2017-08-10T01:00:20.876Z,92.86
2017-08-10T01:01:20.877Z,93.01
2017-08-10T01:02:20.565Z,93.15
2017-08-10T01:03:20.865Z,93.06
2017-08-10T01:04:20.863Z,93.15
2017-08-10T01:05:20.963Z,93.3
2017-08-10T01:06:20.881Z,93.92
2017-08-10T01:07:20.856Z,93.63
2017-08-10T01:08:20.853Z,93.82
2017-08-10T01:09:20.849Z,93.68
2017-08-10T01:10:20.852Z,93.63
2017-08-10T01:11:20.943Z,93.59
2017-08-10T01:12:20.840Z,93.63
2017-08-10T01:13:20.836Z,93.3
2017-08-10T01:14:20.831Z,93.63
2017-08-10T01:15:20.825Z,93.44
2017-08-10T01:16:20.827Z,93.63
2017-08-10T01:17:20.820Z,93.63
2017-08-10T01:18:20.818Z,93.35
2017-08-10T01:19:20.816Z,93.3
2017-08-10T01:20:20.933Z,93.35
2017-08-10T01:21:20.808Z,93.25
2017-08-10T01:22:20.801Z,93.59
2017-08-10T01:23:20.803Z,93.59
2017-08-10T01:24:20.592Z,93.54
2017-08-10T01:25:20.486Z,93.73
2017-08-10T01:26:20.792Z,93.92
2017-08-10T01:27:20.788Z,93.82
2017-08-10T01:28:20.785Z,93.63
2017-08-10T01:29:20.784Z,93.92
2017-08-10T01:30:20.781Z,93.92
2017-08-10T01:31:20.773Z,93.49
2017-08-10T01:32:20.770Z,93.78
2017-08-10T01:33:20.769Z,93.59
2017-08-10T01:34:20.761Z,93.49
2017-08-10T01:35:20.758Z,94.07
2017-08-10T01:36:20.759Z,93.78
2017-08-10T01:37:20.447Z,93.59
2017-08-10T01:38:20.544Z,93.97
2017-08-10T01:39:20.749Z,94.74
2017-08-10T01:40:20.455Z,94.26
2017-08-10T01:41:20.436Z,94.45
2017-08-10T01:42:20.736Z,94.74
2017-08-10T01:43:20.731Z,94.54
2017-08-10T01:44:20.425Z,93.97
2017-08-10T01:45:20.732Z,94.26
2017-08-10T01:46:20.724Z,94.64
2017-08-10T01:47:20.721Z,94.64
2017-08-10T01:48:20.719Z,94.64
2017-08-10T01:49:20.715Z,94.74
2017-08-10T01:50:20.710Z,94.88
2017-08-10T01:51:20.709Z,94.84
2017-08-10T01:52:20.704Z,94.79
2017-08-10T01:53:20.703Z,94.54
2017-08-10T01:54:20.694Z,94.02
2017-08-10T01:55:20.693Z,94.49
2017-08-10T01:56:20.690Z,94.21
2017-08-10T01:57:20.688Z,94.31
2017-08-10T01:58:20.685Z,93.78
2017-08-10T01:59:20.691Z,94.02
2017-08-10T02:00:20.680Z,93.73
2017-08-10T02:01:20.675Z,94.12
2017-08-10T02:02:20.674Z,93.97
2017-08-10T02:03:20.680Z,93.63
2017-08-10T02:04:20.816Z,93.78
2017-08-10T02:05:20.660Z,94.35
2017-08-10T02:06:20.656Z,94.17
2017-08-10T02:07:20.652Z,93.88
2017-08-10T02:08:20.646Z,93.59
2017-08-10T02:09:20.647Z,93.68
2017-08-10T02:10:20.645Z,94.35
2017-08-10T02:11:20.642Z,94.35
2017-08-10T02:12:20.635Z,93.68
2017-08-10T02:13:20.638Z,94.45
2017-08-10T02:14:20.628Z,93.68
2017-08-10T02:15:20.627Z,94.35
2017-08-10T02:16:20.618Z,93.78
2017-08-10T02:17:20.616Z,94.12
2017-08-10T02:18:20.654Z,93.59
2017-08-10T02:19:20.612Z,93.63
2017-08-10T02:20:20.605Z,93.97
2017-08-10T02:21:20.604Z,94.02
2017-08-10T02:22:20.604Z,93.4
2017-08-10T02:23:20.597Z,93.59
2017-08-10T02:24:20.595Z,93.59
2017-08-10T02:25:20.587Z,93.59
2017-08-10T02:26:20.586Z,93.78
2017-08-10T02:27:20.584Z,93.49
2017-08-10T02:28:20.577Z,93.78
2017-08-10T02:29:20.581Z,93.59
2017-08-10T02:30:20.574Z,93.68
2017-08-10T02:31:20.572Z,93.88
2017-08-10T02:32:20.572Z,93.44
2017-08-10T02:33:20.584Z,93.35
2017-08-10T02:34:20.556Z,93.21
2017-08-10T02:35:20.557Z,93.35
2017-08-10T02:36:20.579Z,93.88
2017-08-10T02:37:20.552Z,93.49
2017-08-10T02:38:20.546Z,93.88
2017-08-10T02:39:20.542Z,94.02
2017-08-10T02:40:20.690Z,93.78
2017-08-10T02:41:20.537Z,93.54
2017-08-10T02:42:20.535Z,93.78
2017-08-10T02:43:20.528Z,93.63
2017-08-10T02:44:20.523Z,93.68
2017-08-10T02:45:20.623Z,93.97
2017-08-10T02:46:20.520Z,94.17
2017-08-10T02:47:20.517Z,93.88
2017-08-10T02:48:20.512Z,93.63
2017-08-10T02:49:20.509Z,94.12
2017-08-10T02:50:20.507Z,94.17
2017-08-10T02:51:20.293Z,94.26
2017-08-10T02:52:20.497Z,94.54
2017-08-10T02:53:20.191Z,94.35
2017-08-10T02:54:20.185Z,94.4
2017-08-10T02:55:20.490Z,94.54
2017-08-10T02:56:20.487Z,94.17
2017-08-10T02:57:20.482Z,94.45
2017-08-10T02:58:20.325Z,94.64
2017-08-10T02:59:20.171Z,94.35
2017-08-10T03:00:20.472Z,94.17
2017-08-10T03:01:20.465Z,94.54
2017-08-10T03:02:20.566Z,94.35
2017-08-10T03:03:20.460Z,94.45
2017-08-10T03:04:20.172Z,94.64
2017-08-10T03:05:20.462Z,94.93
2017-08-10T03:06:20.450Z,94.45
2017-08-10T03:07:20.140Z,94.45
2017-08-10T03:08:20.440Z,94.74
2017-08-10T03:09:20.612Z,95.03
2017-08-10T03:10:20.587Z,94.93
2017-08-10T03:11:20.432Z,95.03
2017-08-10T03:12:20.433Z,95.03
2017-08-10T03:13:20.431Z,94.93
2017-08-10T03:14:20.419Z,94.54
2017-08-10T03:15:20.416Z,94.64
2017-08-10T03:16:20.110Z,94.84
2017-08-10T03:17:20.412Z,94.74
2017-08-10T03:18:20.413Z,94.64
2017-08-10T03:19:20.405Z,95.41
2017-08-10T03:20:20.399Z,95.41
2017-08-10T03:21:20.398Z,95.6
2017-08-10T03:22:20.494Z,95.41
2017-08-10T03:23:20.393Z,95.6
2017-08-10T03:24:20.385Z,95.31
2017-08-10T03:25:20.535Z,95.51
2017-08-10T03:26:20.379Z,95.6
2017-08-10T03:27:20.377Z,95.51
2017-08-10T03:28:20.376Z,95.41
2017-08-10T03:29:20.367Z,95.51
2017-08-10T03:30:20.367Z,95.6
2017-08-10T03:31:20.370Z,95.41
2017-08-10T03:32:20.364Z,95.51
2017-08-10T03:33:20.364Z,95.31
2017-08-10T03:34:20.356Z,95.31
2017-08-10T03:35:20.352Z,95.21
2017-08-10T03:36:20.346Z,95.41
2017-08-10T03:37:20.444Z,95.12
2017-08-10T03:38:20.339Z,95.21
2017-08-10T03:39:20.338Z,95.89
2017-08-10T03:40:20.330Z,95.89
2017-08-10T03:41:20.329Z,95.51
2017-08-10T03:42:20.325Z,95.79
2017-08-10T03:43:20.322Z,95.41
2017-08-10T03:44:20.011Z,95.7
2017-08-10T03:45:20.317Z,95.79
2017-08-10T03:46:20.411Z,95.89
2017-08-10T03:47:20.312Z,95.98
2017-08-10T03:48:20.305Z,95.51
2017-08-10T03:49:19.997Z,95.6
2017-08-10T03:50:19.992Z,95.41
2017-08-10T03:51:20.451Z,95.03
2017-08-10T03:52:20.290Z,95.03
2017-08-10T03:53:19.979Z,95.51
2017-08-10T03:54:20.283Z,95.51
2017-08-10T03:55:20.283Z,95.6
2017-08-10T03:56:20.070Z,95.79
2017-08-10T03:57:20.278Z,95.6
2017-08-10T03:58:19.971Z,95.7
2017-08-10T03:59:20.267Z,95.12
2017-08-10T04:00:19.953Z,95.03
2017-08-10T04:01:20.413Z,95.31
2017-08-10T04:02:20.256Z,95.6
2017-08-10T04:03:20.252Z,95.6
2017-08-10T04:04:20.249Z,95.41
2017-08-10T04:05:19.938Z,95.51
2017-08-10T04:06:19.935Z,95.41
2017-08-10T04:07:20.239Z,95.41
2017-08-10T04:08:19.926Z,95.6
2017-08-10T04:09:19.928Z,95.31
2017-08-10T04:10:19.918Z,95.79
2017-08-10T04:11:20.237Z,95.31
2017-08-10T04:12:20.226Z,95.51
2017-08-10T04:13:20.217Z,95.31
2017-08-10T04:14:20.214Z,95.41
2017-08-10T04:15:20.208Z,94.93
2017-08-10T04:16:20.209Z,95.41
2017-08-10T04:17:19.898Z,94.84
2017-08-10T04:18:20.199Z,95.6
2017-08-10T04:19:20.206Z,95.6
2017-08-10T04:20:20.192Z,95.41
2017-08-10T04:21:20.189Z,95.41
2017-08-10T04:22:20.182Z,94.84
2017-08-10T04:23:20.182Z,94.64
2017-08-10T04:24:19.870Z,94.64
2017-08-10T04:25:20.275Z,94.54
2017-08-10T04:26:20.175Z,94.74
2017-08-10T04:27:20.166Z,94.64
2017-08-10T04:28:20.166Z,94.93
2017-08-10T04:29:20.163Z,94.84
2017-08-10T04:30:20.160Z,94.84
2017-08-10T04:31:20.153Z,94.84
2017-08-10T04:32:20.151Z,94.45
2017-08-10T04:33:20.145Z,94.74
2017-08-10T04:34:20.143Z,94.45
2017-08-10T04:35:20.141Z,93.97
2017-08-10T04:36:20.140Z,93.97
2017-08-10T04:37:20.132Z,93.4
2017-08-10T04:38:19.821Z,93.49
2017-08-10T04:39:20.226Z,93.68
2017-08-10T04:40:19.815Z,93.49
2017-08-10T04:41:20.119Z,93.78
2017-08-10T04:42:19.810Z,93.59
2017-08-10T04:43:20.111Z,93.68
2017-08-10T04:44:19.802Z,93.59
2017-08-10T04:45:20.110Z,93.78
2017-08-10T04:46:20.103Z,93.68
2017-08-10T04:47:20.100Z,93.59
2017-08-10T04:48:20.097Z,93.68
2017-08-10T04:49:20.092Z,93.59
2017-08-10T04:50:20.088Z,93.78
2017-08-10T04:51:20.083Z,93.78
2017-08-10T04:52:19.776Z,93.49
2017-08-10T04:53:19.771Z,93.49
2017-08-10T04:54:20.076Z,93.78
2017-08-10T04:55:20.070Z,93.59
2017-08-10T04:56:20.064Z,93.78
2017-08-10T04:57:20.065Z,93.97
2017-08-10T04:58:20.061Z,93.97
2017-08-10T04:59:20.059Z,93.68
2017-08-10T05:00:20.170Z,93.78
2017-08-10T05:01:20.059Z,93.59
2017-08-10T05:02:20.045Z,92.72
2017-08-10T05:03:20.041Z,92.91
2017-08-10T05:04:20.143Z,93.01
2017-08-10T05:05:20.064Z,92.91
2017-08-10T05:06:20.035Z,93.11
2017-08-10T05:07:20.028Z,93.11
2017-08-10T05:08:20.042Z,93.11
2017-08-10T05:09:20.021Z,93.11
2017-08-10T05:10:20.020Z,93.01
2017-08-10T05:11:20.013Z,92.44
2017-08-10T05:12:20.011Z,92.44
2017-08-10T05:13:20.011Z,92.82
2017-08-10T05:14:20.004Z,92.72
2017-08-10T05:15:19.999Z,92.82
2017-08-10T05:16:20.101Z,92.72
2017-08-10T05:17:19.993Z,92.72
2017-08-10T05:18:19.991Z,92.72
2017-08-10T05:19:19.990Z,92.63
2017-08-10T05:20:19.983Z,92.82
2017-08-10T05:21:19.980Z,92.54
2017-08-10T05:22:20.125Z,92.63
2017-08-10T05:23:19.971Z,92.54
2017-08-10T05:24:19.974Z,92.54
2017-08-10T05:25:19.965Z,92.34
2017-08-10T05:26:19.657Z,93.3
2017-08-10T05:27:20.064Z,93.01
2017-08-10T05:28:20.053Z,93.11
2017-08-10T05:29:19.951Z,93.3
2017-08-10T05:30:19.947Z,92.72
2017-08-10T05:31:19.637Z,93.3
2017-08-10T05:32:19.938Z,93.11
2017-08-10T05:33:19.939Z,93.11
2017-08-10T05:34:19.935Z,93.21
2017-08-10T05:35:19.934Z,93.11
2017-08-10T05:36:19.924Z,93.3
2017-08-10T05:37:19.923Z,92.91
2017-08-10T05:38:19.920Z,92.91
2017-08-10T05:39:19.913Z,92.91
2017-08-10T05:40:19.911Z,93.01
2017-08-10T05:41:19.602Z,92.72
2017-08-10T05:42:19.910Z,92.91
2017-08-10T05:43:19.900Z,92.91
2017-08-10T05:44:19.901Z,93.01
2017-08-10T05:45:19.895Z,93.01
2017-08-10T05:46:19.996Z,93.01
2017-08-10T05:47:20.086Z,92.77
2017-08-10T05:48:19.882Z,92.72
2017-08-10T05:49:19.881Z,92.72
2017-08-10T05:50:19.878Z,93.01
2017-08-10T05:51:19.872Z,92.97
2017-08-10T05:52:19.969Z,93.01
2017-08-10T05:53:19.863Z,92.97
2017-08-10T05:54:19.864Z,92.82
2017-08-10T05:55:19.857Z,93.01
2017-08-10T05:56:19.854Z,92.91
2017-08-10T05:57:19.849Z,93.01
2017-08-10T05:58:19.849Z,93.01
2017-08-10T05:59:19.851Z,93.01
2017-08-10T06:00:19.842Z,93.3
2017-08-10T06:01:19.837Z,93.01
2017-08-10T06:02:19.834Z,92.91
2017-08-10T06:03:19.831Z,93.06
2017-08-10T06:04:19.828Z,93.3
2017-08-10T06:05:19.826Z,93.73
2017-08-10T06:06:19.821Z,93.44
2017-08-10T06:07:19.814Z,93.44
2017-08-10T06:08:19.813Z,93.73
2017-08-10T06:09:19.808Z,93.49
2017-08-10T06:10:19.807Z,93.54
2017-08-10T06:11:19.803Z,93.35
2017-08-10T06:12:19.801Z,93.35
2017-08-10T06:13:19.491Z,93.35
2017-08-10T06:14:19.823Z,93.63
2017-08-10T06:15:19.791Z,93.63
2017-08-10T06:16:19.784Z,93.35
2017-08-10T06:17:19.782Z,93.83
2017-08-10T06:18:19.774Z,93.54
2017-08-10T06:19:19.777Z,93.54
2017-08-10T06:20:19.772Z,93.93
2017-08-10T06:21:19.769Z,93.83
2017-08-10T06:22:19.763Z,93.35
2017-08-10T06:23:19.763Z,93.26
2017-08-10T06:24:19.758Z,93.44
2017-08-10T06:25:19.754Z,92.87
2017-08-10T06:26:19.752Z,93.11
2017-08-10T06:27:19.744Z,92.63
2017-08-10T06:28:19.739Z,92.06
2017-08-10T06:29:19.750Z,91.49
2017-08-10T06:30:19.736Z,91.58
2017-08-10T06:31:19.730Z,91.58
2017-08-10T06:32:19.729Z,91.19
2017-08-10T06:33:19.728Z,90.72
2017-08-10T06:34:19.872Z,90.14
2017-08-10T06:35:19.720Z,89.86
2017-08-10T06:36:19.714Z,88.99
2017-08-10T06:37:19.712Z,88.8
2017-08-10T06:38:19.398Z,88.99
2017-08-10T06:39:19.708Z,88.61
2017-08-10T06:40:19.701Z,88.23
2017-08-10T06:41:19.698Z,88.42
2017-08-10T06:42:19.841Z,88.42
2017-08-10T06:43:19.689Z,88.99
2017-08-10T06:44:19.688Z,88.51
2017-08-10T06:45:19.691Z,89.09
2017-08-10T06:46:19.679Z,88.23
2017-08-10T06:47:19.779Z,88.7
2017-08-10T06:48:19.672Z,88.99
2017-08-10T06:49:19.669Z,88.8
2017-08-10T06:50:19.669Z,88.8
2017-08-10T06:51:19.662Z,89.09
2017-08-10T06:52:19.658Z,88.9
2017-08-10T06:53:19.654Z,88.99
2017-08-10T06:54:19.751Z,89.47
2017-08-10T06:55:19.647Z,89.18
2017-08-10T06:56:19.644Z,89.47
2017-08-10T06:57:19.640Z,89.66
2017-08-10T06:58:19.636Z,89.57
2017-08-10T06:59:19.737Z,89.66
2017-08-10T07:00:19.631Z,89.95
2017-08-10T07:01:19.625Z,89.95
2017-08-10T07:02:19.624Z,90.43
2017-08-10T07:03:19.617Z,90.33
2017-08-10T07:04:19.307Z,90.23
2017-08-10T07:05:19.811Z,89.95
2017-08-10T07:06:19.299Z,90.05
2017-08-10T07:07:19.609Z,90.72
2017-08-10T07:08:19.599Z,90.33
2017-08-10T07:09:19.596Z,90.53
2017-08-10T07:10:19.590Z,90.33
2017-08-10T07:11:19.592Z,90.28
2017-08-10T07:12:19.585Z,90.05
2017-08-10T07:13:19.581Z,90.72
2017-08-10T07:14:19.579Z,90.72
2017-08-10T07:15:19.574Z,90.57
2017-08-10T07:16:19.570Z,90.86
2017-08-10T07:17:19.266Z,91
2017-08-10T07:18:19.262Z,91.05
2017-08-10T07:19:19.253Z,90.67
2017-08-10T07:20:19.558Z,91.39
2017-08-10T07:21:19.552Z,91.29
2017-08-10T07:22:19.549Z,91.19
2017-08-10T07:23:19.544Z,91.43
2017-08-10T07:24:19.543Z,91.43
2017-08-10T07:25:19.232Z,91.19
2017-08-10T07:26:19.534Z,91.14
2017-08-10T07:27:19.529Z,90.86
2017-08-10T07:28:19.527Z,91.1
2017-08-10T07:29:19.217Z,91.1
2017-08-10T07:30:19.523Z,91
2017-08-10T07:31:19.517Z,91.1
2017-08-10T07:32:19.512Z,91.39
2017-08-10T07:33:19.512Z,91.19
2017-08-10T07:34:19.504Z,91.49
2017-08-10T07:35:19.197Z,91.49
2017-08-10T07:36:19.497Z,91.72
2017-08-10T07:37:19.494Z,91.58
2017-08-10T07:38:19.490Z,91.63
2017-08-10T07:39:19.489Z,91.29
2017-08-10T07:40:19.483Z,91.77
2017-08-10T07:41:19.478Z,91.49
2017-08-10T07:42:19.170Z,91.58
2017-08-10T07:43:19.473Z,91.77
2017-08-10T07:44:19.471Z,91.77
2017-08-10T07:45:19.159Z,92.1
2017-08-10T07:46:19.157Z,91.82
2017-08-10T07:47:19.158Z,92.01
2017-08-10T07:48:19.152Z,91.34
2017-08-10T07:49:19.450Z,91.43
2017-08-10T07:50:19.451Z,91.43
2017-08-10T07:51:19.442Z,91.72
2017-08-10T07:52:19.465Z,91.24
2017-08-10T07:53:19.437Z,91.43
2017-08-10T07:54:19.435Z,91.24
2017-08-10T07:55:19.428Z,91.14
2017-08-10T07:56:19.427Z,91.1
2017-08-10T07:57:19.421Z,90.95
2017-08-10T07:58:19.422Z,90.72
2017-08-10T07:59:19.417Z,90.81
2017-08-10T08:00:19.413Z,90.76
2017-08-10T08:01:19.410Z,90.62
2017-08-10T08:02:19.407Z,90.43
2017-08-10T08:03:19.499Z,90.43
2017-08-10T08:04:19.396Z,90.14
2017-08-10T08:05:19.397Z,90.14
2017-08-10T08:06:19.390Z,90.67
2017-08-10T08:07:19.393Z,90.81
2017-08-10T08:08:19.395Z,90.72
2017-08-10T08:09:19.382Z,90.72
2017-08-10T08:10:19.377Z,90.81
2017-08-10T08:11:19.381Z,90.81
2017-08-10T08:12:19.369Z,91.05
2017-08-10T08:13:19.366Z,90.95
2017-08-10T08:14:19.364Z,91.14
2017-08-10T08:15:19.365Z,91
2017-08-10T08:16:19.053Z,91.05
2017-08-10T08:17:19.348Z,91.86
2017-08-10T08:18:19.349Z,91.67
2017-08-10T08:19:19.344Z,91.49
2017-08-10T08:20:19.343Z,91.49
2017-08-10T08:21:19.389Z,91.67
2017-08-10T08:22:19.333Z,91.58
2017-08-10T08:23:19.332Z,91.39
2017-08-10T08:24:19.325Z,91.58
2017-08-10T08:25:19.321Z,91.58
2017-08-10T08:26:19.317Z,91.49
2017-08-10T08:27:19.317Z,91.58
2017-08-10T08:28:19.312Z,91.86
2017-08-10T08:29:19.309Z,91.86
2017-08-10T08:30:19.303Z,91.82
2017-08-10T08:31:19.302Z,91.63
2017-08-10T08:32:18.989Z,91.72
2017-08-10T08:33:18.990Z,91.63
2017-08-10T08:34:19.299Z,91.72
2017-08-10T08:35:19.287Z,91.53
2017-08-10T08:36:19.283Z,91.63
2017-08-10T08:37:19.278Z,91.63
2017-08-10T08:38:18.970Z,91.63
2017-08-10T08:39:19.270Z,91.82
2017-08-10T08:40:18.960Z,92.4
2017-08-10T08:41:19.265Z,91.63
2017-08-10T08:42:19.373Z,91.92
2017-08-10T08:43:18.949Z,91.63
2017-08-10T08:44:19.253Z,92.49
2017-08-10T08:45:19.254Z,92.49
2017-08-10T08:46:19.395Z,93.16
2017-08-10T08:47:19.346Z,92.87
2017-08-10T08:48:19.239Z,93.64
2017-08-10T08:49:18.927Z,93.69
2017-08-10T08:50:19.238Z,93.98
2017-08-10T08:51:19.226Z,94.07
2017-08-10T08:52:19.226Z,94.17
2017-08-10T08:53:19.220Z,94.17
2017-08-10T08:54:19.214Z,94.26
2017-08-10T08:55:19.217Z,94.07
2017-08-10T08:56:19.206Z,94.17
2017-08-10T08:57:19.205Z,94.17
2017-08-10T08:58:18.894Z,94.21
2017-08-10T08:59:18.890Z,94.17
2017-08-10T09:00:18.887Z,94.26
2017-08-10T09:01:19.189Z,94.17
2017-08-10T09:02:18.882Z,94.55
2017-08-10T09:03:18.879Z,94.55
2017-08-10T09:04:18.877Z,94.45
2017-08-10T09:05:19.179Z,94.36
2017-08-10T09:06:19.169Z,94.21
2017-08-10T09:07:19.170Z,93.98
2017-08-10T09:08:19.166Z,94.02
2017-08-10T09:09:19.160Z,94.17
2017-08-10T09:10:19.163Z,94.07
2017-08-10T09:11:19.159Z,94.36
2017-08-10T09:12:19.152Z,94.55
2017-08-10T09:13:19.146Z,93.79
2017-08-10T09:14:19.145Z,93.59
2017-08-10T09:15:19.241Z,93.12
2017-08-10T09:16:19.135Z,93.12
2017-08-10T09:17:18.824Z,92.49
2017-08-10T09:18:19.129Z,92.59
2017-08-10T09:19:18.819Z,92.69
2017-08-10T09:20:19.124Z,92.88
2017-08-10T09:21:19.117Z,93.07
2017-08-10T09:22:19.114Z,92.3
2017-08-10T09:23:19.112Z,92.4
2017-08-10T09:24:19.111Z,92.11
2017-08-10T09:25:18.799Z,92.16
2017-08-10T09:26:19.104Z,91.49
2017-08-10T09:27:19.097Z,92.16
2017-08-10T09:28:19.094Z,92.07
2017-08-10T09:29:18.781Z,91.39
2017-08-10T09:30:19.086Z,91.49
2017-08-10T09:31:19.081Z,91.49
2017-08-10T09:32:19.076Z,91.97
2017-08-10T09:33:18.769Z,92.16
2017-08-10T09:34:19.076Z,92.16
2017-08-10T09:35:19.064Z,92.16
2017-08-10T09:36:19.066Z,92.16
2017-08-10T09:37:19.060Z,92.07
2017-08-10T09:38:19.053Z,92.25
2017-08-10T09:39:19.052Z,92.25
2017-08-10T09:40:19.167Z,92.35
2017-08-10T09:41:19.048Z,92.54
2017-08-10T09:42:19.048Z,92.21
2017-08-10T09:43:19.038Z,92.4
2017-08-10T09:44:19.037Z,92.3
2017-08-10T09:45:19.030Z,92.49
2017-08-10T09:46:19.025Z,92.49
2017-08-10T09:47:19.024Z,92.49
2017-08-10T09:48:19.019Z,92.3
2017-08-10T09:49:19.014Z,92.4
2017-08-10T09:50:18.707Z,92.3
2017-08-10T09:51:19.010Z,92.49
2017-08-10T09:52:19.102Z,92.49
2017-08-10T09:53:18.999Z,92.11
2017-08-10T09:54:19.009Z,92.02
2017-08-10T09:55:18.991Z,92.3
2017-08-10T09:56:18.989Z,92.59
2017-08-10T09:57:18.991Z,92.21
2017-08-10T09:58:18.786Z,92.3
2017-08-10T09:59:18.979Z,92.3
2017-08-10T10:00:18.974Z,92.4
2017-08-10T10:01:18.970Z,92.4
2017-08-10T10:02:18.968Z,92.49
2017-08-10T10:03:18.962Z,92.49
2017-08-10T10:04:19.311Z,93.07
2017-08-10T10:05:18.957Z,92.88
2017-08-10T10:06:18.951Z,92.69
2017-08-10T10:07:18.948Z,92.3
2017-08-10T10:08:18.945Z,92.49
2017-08-10T10:09:18.942Z,92.4
2017-08-10T10:10:18.946Z,92.4
2017-08-10T10:11:18.936Z,91.44
2017-08-10T10:12:18.624Z,91.25
2017-08-10T10:13:18.957Z,91.25
2017-08-10T10:14:18.928Z,91.44
2017-08-10T10:15:18.612Z,91.44
2017-08-10T10:16:19.068Z,91.44
2017-08-10T10:17:18.914Z,91.53
2017-08-10T10:18:18.603Z,91.44
2017-08-10T10:19:18.594Z,91.73
2017-08-10T10:20:18.590Z,91.53
2017-08-10T10:21:18.590Z,91.53
2017-08-10T10:22:18.890Z,91.44
2017-08-10T10:23:18.585Z,91.35
2017-08-10T10:24:18.885Z,91.53
2017-08-10T10:25:18.573Z,91.53
2017-08-10T10:26:18.570Z,91.25
2017-08-10T10:27:18.873Z,91.16
2017-08-10T10:28:18.873Z,91.25
2017-08-10T10:29:18.658Z,91.25
2017-08-10T10:30:18.869Z,91.63
2017-08-10T10:31:18.874Z,91.25
2017-08-10T10:32:18.549Z,91.53
2017-08-10T10:33:18.853Z,91.16
2017-08-10T10:34:18.850Z,91.53
2017-08-10T10:35:18.847Z,91.25
2017-08-10T10:36:18.939Z,91.25
2017-08-10T10:37:18.835Z,91.44
2017-08-10T10:38:18.836Z,91.44
2017-08-10T10:39:18.836Z,91.35
2017-08-10T10:40:18.824Z,91.25
2017-08-10T10:41:18.514Z,91.63
2017-08-10T10:42:18.512Z,91.73
2017-08-10T10:43:18.507Z,92.59
2017-08-10T10:44:18.504Z,92.59
2017-08-10T10:45:18.497Z,92.3
2017-08-10T10:46:18.495Z,91.83
2017-08-10T10:47:18.797Z,91.06
2017-08-10T10:48:18.796Z,90.96
2017-08-10T10:49:18.891Z,90.73
2017-08-10T10:50:18.580Z,91.2
2017-08-10T10:51:18.474Z,91.2
2017-08-10T10:52:18.474Z,90.63
2017-08-10T10:53:18.471Z,90.53
2017-08-10T10:54:18.469Z,90.63
2017-08-10T10:55:18.462Z,89.96
2017-08-10T10:56:18.772Z,89.87
2017-08-10T10:57:18.762Z,89.96
2017-08-10T10:58:18.757Z,90.16
2017-08-10T10:59:18.752Z,90.06
2017-08-10T11:00:18.753Z,89.96
2017-08-10T11:01:18.747Z,90.34
2017-08-10T11:02:18.744Z,90.16
2017-08-10T11:03:18.740Z,90.06
2017-08-10T11:04:18.735Z,89.77
2017-08-10T11:05:18.425Z,89.58
2017-08-10T11:06:18.729Z,89.29
2017-08-10T11:07:18.723Z,88.72
2017-08-10T11:08:18.720Z,88.72
2017-08-10T11:09:18.716Z,88.91
2017-08-10T11:10:18.714Z,89.1
2017-08-10T11:11:18.711Z,88.72
2017-08-10T11:12:18.807Z,88.81
2017-08-10T11:13:18.402Z,88.53
2017-08-10T11:14:18.729Z,88.91
2017-08-10T11:15:18.691Z,88.53
2017-08-10T11:16:18.690Z,88.62
2017-08-10T11:17:18.684Z,87.95
2017-08-10T11:18:18.682Z,87.19
2017-08-10T11:19:18.682Z,87.66
2017-08-10T11:20:18.776Z,87.43
2017-08-10T11:21:18.673Z,87.66
2017-08-10T11:22:18.670Z,87.72
2017-08-10T11:23:18.667Z,86.96
2017-08-10T11:24:18.658Z,87.05
2017-08-10T11:25:18.350Z,87.05
2017-08-10T11:26:18.498Z,86.86
2017-08-10T11:27:18.651Z,87.24
2017-08-10T11:28:18.642Z,86.86
2017-08-10T11:29:18.333Z,87.05
2017-08-10T11:30:18.639Z,87.05
2017-08-10T11:31:18.634Z,86.76
2017-08-10T11:32:18.636Z,86.86
2017-08-10T11:33:18.629Z,87.62
2017-08-10T11:34:18.622Z,87.62
2017-08-10T11:35:18.618Z,87.53
2017-08-10T11:36:18.613Z,87.05
2017-08-10T11:37:18.611Z,87.53
2017-08-10T11:38:18.317Z,87.43
2017-08-10T11:39:18.601Z,87.91
2017-08-10T11:40:18.602Z,87.82
2017-08-10T11:41:18.596Z,88.1
2017-08-10T11:42:18.591Z,88.2
2017-08-10T11:43:18.282Z,88.01
2017-08-10T11:44:18.584Z,88.2
2017-08-10T11:45:18.589Z,88.1
2017-08-10T11:46:18.580Z,88.1
2017-08-10T11:47:18.572Z,88.29
2017-08-10T11:48:18.569Z,88.39
2017-08-10T11:49:18.566Z,88.29
2017-08-10T11:50:18.563Z,88.29
2017-08-10T11:51:18.561Z,88.2
2017-08-10T11:52:18.246Z,88.39
2017-08-10T11:53:18.561Z,88.58
2017-08-10T11:54:18.548Z,88.73
2017-08-10T11:55:18.541Z,88.77
2017-08-10T11:56:18.538Z,88.96
2017-08-10T11:57:18.532Z,89.2
2017-08-10T11:58:18.532Z,88.96
2017-08-10T11:59:18.528Z,89.06
2017-08-10T12:00:18.526Z,88.96
2017-08-10T12:01:18.515Z,88.87
2017-08-10T12:02:18.515Z,88.96
2017-08-10T12:03:18.209Z,88.68
2017-08-10T12:04:18.504Z,88.77
2017-08-10T12:05:18.503Z,88.77
2017-08-10T12:06:18.601Z,88.77
2017-08-10T12:07:18.495Z,88.48
2017-08-10T12:08:18.494Z,88.77
2017-08-10T12:09:18.489Z,88.77
2017-08-10T12:10:18.482Z,88.48
2017-08-10T12:11:18.483Z,88.58
2017-08-10T12:12:18.477Z,88.87
2017-08-10T12:13:18.471Z,88.77
2017-08-10T12:14:18.488Z,89.06
2017-08-10T12:15:18.466Z,88.77
2017-08-10T12:16:18.460Z,89.34
2017-08-10T12:17:18.150Z,89.06
2017-08-10T12:18:18.455Z,89.15
2017-08-10T12:19:18.448Z,89.25
2017-08-10T12:20:18.546Z,89.06
2017-08-10T12:21:18.136Z,89.73
2017-08-10T12:22:18.130Z,89.44
2017-08-10T12:23:18.534Z,88.77
2017-08-10T12:24:18.435Z,89.06
2017-08-10T12:25:18.527Z,88.87
2017-08-10T12:26:18.420Z,89.25
2017-08-10T12:27:18.417Z,88.96
2017-08-10T12:28:18.410Z,89.25
2017-08-10T12:29:18.409Z,89.34
2017-08-10T12:30:18.406Z,89.34
2017-08-10T12:31:18.405Z,89.15
2017-08-10T12:32:18.399Z,89.34
2017-08-10T12:33:18.395Z,89.01
2017-08-10T12:34:18.393Z,88.81
2017-08-10T12:35:18.389Z,88.15
2017-08-10T12:36:18.382Z,88.43
2017-08-10T12:37:18.380Z,88.39
2017-08-10T12:38:18.374Z,88.91
2017-08-10T12:39:18.372Z,88.29
2017-08-10T12:40:18.365Z,88.29
2017-08-10T12:41:18.367Z,88.77
2017-08-10T12:42:18.466Z,88.2
2017-08-10T12:43:18.357Z,88.2
2017-08-10T12:44:18.352Z,88.1
2017-08-10T12:45:18.355Z,88.81
2017-08-10T12:46:18.039Z,88.58
2017-08-10T12:47:18.339Z,88.58
2017-08-10T12:48:18.335Z,88.91
2017-08-10T12:49:18.332Z,89.01
2017-08-10T12:50:18.329Z,88.2
2017-08-10T12:51:18.322Z,88.29
2017-08-10T12:52:18.321Z,88.43
2017-08-10T12:53:18.318Z,88.68
2017-08-10T12:54:18.318Z,88.29
2017-08-10T12:55:18.308Z,88.05